sensor_id;sensor_type;location;lat;lon;timestamp;P1;durP1;ratioP1;P2;durP2;ratioP2
3293;SDS011;1659;51.470;6.770;2023-03-03T00:00:26;81.37;;;36.13;;
3293;SDS011;1659;51.470;6.770;2023-03-03T00:02:53;100.00;;;36.40;;
3293;SDS011;1659;51.470;6.770;2023-03-03T00:05:19;89.57;;;34.57;;
3293;SDS011;1659;51.470;6.770;2023-03-03T00:07:47;96.47;;;36.43;;
3293;SDS011;1659;51.470;6.770;2023-03-03T00:10:13;80.80;;;34.50;;
3293;SDS011;1659;51.470;6.770;2023-03-03T00:12:45;77.87;;;32.43;;
3293;SDS011;1659;51.470;6.770;2023-03-03T00:15:13;83.27;;;33.63;;
3293;SDS011;1659;51.470;6.770;2023-03-03T00:17:41;89.57;;;35.30;;
3293;SDS011;1659;51.470;6.770;2023-03-03T00:22:57;77.13;;;31.97;;
3293;SDS011;1659;51.470;6.770;2023-03-03T00:25:32;77.07;;;32.40;;
3293;SDS011;1659;51.470;6.770;2023-03-03T00:28:00;72.07;;;31.47;;
3293;SDS011;1659;51.470;6.770;2023-03-03T00:30:29;81.10;;;31.43;;
3293;SDS011;1659;51.470;6.770;2023-03-03T00:32:56;66.17;;;29.33;;
3293;SDS011;1659;51.470;6.770;2023-03-03T00:35:24;68.43;;;29.67;;
3293;SDS011;1659;51.470;6.770;2023-03-03T00:37:54;70.90;;;30.60;;
3293;SDS011;1659;51.470;6.770;2023-03-03T00:40:24;70.43;;;31.70;;
3293;SDS011;1659;51.470;6.770;2023-03-03T00:42:52;77.40;;;30.00;;
3293;SDS011;1659;51.470;6.770;2023-03-03T00:45:22;81.73;;;33.97;;
3293;SDS011;1659;51.470;6.770;2023-03-03T00:47:53;74.67;;;32.30;;
3293;SDS011;1659;51.470;6.770;2023-03-03T00:50:27;78.70;;;32.50;;
3293;SDS011;1659;51.470;6.770;2023-03-03T00:53:04;74.37;;;30.17;;
3293;SDS011;1659;51.470;6.770;2023-03-03T00:55:32;77.93;;;29.47;;
3293;SDS011;1659;51.470;6.770;2023-03-03T00:58:00;67.67;;;30.57;;
3293;SDS011;1659;51.470;6.770;2023-03-03T01:00:26;73.10;;;32.60;;
3293;SDS011;1659;51.470;6.770;2023-03-03T01:02:53;77.30;;;33.60;;
3293;SDS011;1659;51.470;6.770;2023-03-03T01:05:20;76.13;;;34.47;;
3293;SDS011;1659;51.470;6.770;2023-03-03T01:07:46;81.63;;;34.07;;
3293;SDS011;1659;51.470;6.770;2023-03-03T01:10:14;76.33;;;33.50;;
3293;SDS011;1659;51.470;6.770;2023-03-03T01:12:41;81.73;;;33.93;;
3293;SDS011;1659;51.470;6.770;2023-03-03T01:15:08;81.07;;;35.27;;
3293;SDS011;1659;51.470;6.770;2023-03-03T01:17:36;86.73;;;36.70;;
3293;SDS011;1659;51.470;6.770;2023-03-03T01:20:04;83.77;;;37.03;;
3293;SDS011;1659;51.470;6.770;2023-03-03T01:22:31;89.70;;;36.30;;
3293;SDS011;1659;51.470;6.770;2023-03-03T01:24:58;82.87;;;34.80;;
3293;SDS011;1659;51.470;6.770;2023-03-03T01:27:26;82.13;;;35.23;;
3293;SDS011;1659;51.470;6.770;2023-03-03T01:29:52;77.17;;;33.00;;
3293;SDS011;1659;51.470;6.770;2023-03-03T01:32:20;76.37;;;32.73;;
3293;SDS011;1659;51.470;6.770;2023-03-03T01:34:47;63.93;;;30.57;;
3293;SDS011;1659;51.470;6.770;2023-03-03T01:37:13;76.90;;;31.90;;
3293;SDS011;1659;51.470;6.770;2023-03-03T01:39:40;81.30;;;33.47;;
3293;SDS011;1659;51.470;6.770;2023-03-03T01:42:06;85.50;;;34.87;;
3293;SDS011;1659;51.470;6.770;2023-03-03T01:44:34;80.63;;;33.20;;
3293;SDS011;1659;51.470;6.770;2023-03-03T01:47:02;91.30;;;38.03;;
3293;SDS011;1659;51.470;6.770;2023-03-03T01:49:32;106.37;;;40.50;;
3293;SDS011;1659;51.470;6.770;2023-03-03T01:52:01;104.30;;;39.87;;
3293;SDS011;1659;51.470;6.770;2023-03-03T01:54:36;95.13;;;37.70;;
3293;SDS011;1659;51.470;6.770;2023-03-03T01:57:08;99.90;;;38.33;;
3293;SDS011;1659;51.470;6.770;2023-03-03T01:59:41;91.33;;;37.00;;
3293;SDS011;1659;51.470;6.770;2023-03-03T02:02:11;97.83;;;38.53;;
3293;SDS011;1659;51.470;6.770;2023-03-03T02:04:37;98.00;;;36.50;;
3293;SDS011;1659;51.470;6.770;2023-03-03T02:07:05;92.77;;;35.30;;
3293;SDS011;1659;51.470;6.770;2023-03-03T02:09:36;85.87;;;35.23;;
3293;SDS011;1659;51.470;6.770;2023-03-03T02:12:10;80.87;;;32.43;;
3293;SDS011;1659;51.470;6.770;2023-03-03T02:14:40;84.33;;;32.20;;
3293;SDS011;1659;51.470;6.770;2023-03-03T02:17:06;75.73;;;33.20;;
3293;SDS011;1659;51.470;6.770;2023-03-03T02:19:35;72.43;;;30.70;;
3293;SDS011;1659;51.470;6.770;2023-03-03T02:22:11;87.90;;;32.77;;
3293;SDS011;1659;51.470;6.770;2023-03-03T02:24:42;98.10;;;35.33;;
3293;SDS011;1659;51.470;6.770;2023-03-03T02:27:14;94.60;;;38.10;;
3293;SDS011;1659;51.470;6.770;2023-03-03T02:29:41;91.23;;;35.77;;
3293;SDS011;1659;51.470;6.770;2023-03-03T02:32:07;78.77;;;33.00;;
3293;SDS011;1659;51.470;6.770;2023-03-03T02:34:43;86.80;;;35.50;;
3293;SDS011;1659;51.470;6.770;2023-03-03T02:37:11;83.07;;;35.40;;
3293;SDS011;1659;51.470;6.770;2023-03-03T02:39:38;81.60;;;36.30;;
3293;SDS011;1659;51.470;6.770;2023-03-03T02:42:06;85.57;;;36.53;;
3293;SDS011;1659;51.470;6.770;2023-03-03T02:44:36;95.73;;;37.37;;
3293;SDS011;1659;51.470;6.770;2023-03-03T02:47:04;96.17;;;37.00;;
3293;SDS011;1659;51.470;6.770;2023-03-03T02:49:31;98.50;;;40.00;;
3293;SDS011;1659;51.470;6.770;2023-03-03T02:51:59;107.23;;;41.13;;
3293;SDS011;1659;51.470;6.770;2023-03-03T02:54:28;97.57;;;40.47;;
3293;SDS011;1659;51.470;6.770;2023-03-03T02:56:55;114.17;;;43.77;;
3293;SDS011;1659;51.470;6.770;2023-03-03T02:59:22;107.33;;;42.43;;
3293;SDS011;1659;51.470;6.770;2023-03-03T03:01:50;121.33;;;43.50;;
3293;SDS011;1659;51.470;6.770;2023-03-03T03:04:18;112.93;;;41.17;;
3293;SDS011;1659;51.470;6.770;2023-03-03T03:06:45;114.60;;;41.60;;
3293;SDS011;1659;51.470;6.770;2023-03-03T03:09:13;103.70;;;39.07;;
3293;SDS011;1659;51.470;6.770;2023-03-03T03:11:41;104.40;;;40.53;;
3293;SDS011;1659;51.470;6.770;2023-03-03T03:14:08;91.80;;;35.40;;
3293;SDS011;1659;51.470;6.770;2023-03-03T03:16:36;100.57;;;37.63;;
3293;SDS011;1659;51.470;6.770;2023-03-03T03:19:04;94.33;;;36.53;;
3293;SDS011;1659;51.470;6.770;2023-03-03T03:21:32;99.33;;;36.97;;
3293;SDS011;1659;51.470;6.770;2023-03-03T03:23:59;94.10;;;37.43;;
3293;SDS011;1659;51.470;6.770;2023-03-03T03:26:25;98.10;;;38.23;;
3293;SDS011;1659;51.470;6.770;2023-03-03T03:28:52;100.80;;;38.40;;
3293;SDS011;1659;51.470;6.770;2023-03-03T03:31:19;97.87;;;35.53;;
3293;SDS011;1659;51.470;6.770;2023-03-03T03:33:46;91.13;;;35.37;;
3293;SDS011;1659;51.470;6.770;2023-03-03T03:36:15;87.03;;;35.27;;
3293;SDS011;1659;51.470;6.770;2023-03-03T03:38:42;95.13;;;35.27;;
3293;SDS011;1659;51.470;6.770;2023-03-03T03:41:09;81.53;;;33.10;;
3293;SDS011;1659;51.470;6.770;2023-03-03T03:43:36;105.90;;;39.93;;
3293;SDS011;1659;51.470;6.770;2023-03-03T03:46:03;96.83;;;35.80;;
3293;SDS011;1659;51.470;6.770;2023-03-03T03:48:30;102.83;;;36.37;;
3293;SDS011;1659;51.470;6.770;2023-03-03T03:50:56;109.73;;;38.70;;
3293;SDS011;1659;51.470;6.770;2023-03-03T03:53:24;104.27;;;37.00;;
3293;SDS011;1659;51.470;6.770;2023-03-03T03:55:51;104.03;;;40.03;;
3293;SDS011;1659;51.470;6.770;2023-03-03T03:58:18;102.03;;;40.40;;
3293;SDS011;1659;51.470;6.770;2023-03-03T04:00:45;130.97;;;42.60;;
3293;SDS011;1659;51.470;6.770;2023-03-03T04:03:12;111.97;;;39.33;;
3293;SDS011;1659;51.470;6.770;2023-03-03T04:05:39;115.20;;;38.90;;
3293;SDS011;1659;51.470;6.770;2023-03-03T04:08:06;121.47;;;38.73;;
3293;SDS011;1659;51.470;6.770;2023-03-03T04:10:34;126.63;;;43.77;;
3293;SDS011;1659;51.470;6.770;2023-03-03T04:13:01;122.20;;;39.97;;
3293;SDS011;1659;51.470;6.770;2023-03-03T04:15:27;135.57;;;41.93;;
3293;SDS011;1659;51.470;6.770;2023-03-03T04:17:54;111.70;;;41.37;;
3293;SDS011;1659;51.470;6.770;2023-03-03T04:20:20;127.57;;;42.17;;
3293;SDS011;1659;51.470;6.770;2023-03-03T04:22:47;116.93;;;37.07;;
3293;SDS011;1659;51.470;6.770;2023-03-03T04:25:14;133.80;;;41.53;;
3293;SDS011;1659;51.470;6.770;2023-03-03T04:27:43;127.07;;;40.57;;
3293;SDS011;1659;51.470;6.770;2023-03-03T04:30:10;106.57;;;39.30;;
3293;SDS011;1659;51.470;6.770;2023-03-03T04:32:38;119.00;;;42.90;;
3293;SDS011;1659;51.470;6.770;2023-03-03T04:35:05;130.97;;;41.13;;
3293;SDS011;1659;51.470;6.770;2023-03-03T04:37:32;111.10;;;39.80;;
3293;SDS011;1659;51.470;6.770;2023-03-03T04:39:58;137.30;;;44.20;;
3293;SDS011;1659;51.470;6.770;2023-03-03T04:42:25;121.50;;;38.93;;
3293;SDS011;1659;51.470;6.770;2023-03-03T04:44:54;122.77;;;38.50;;
3293;SDS011;1659;51.470;6.770;2023-03-03T04:47:20;112.23;;;42.00;;
3293;SDS011;1659;51.470;6.770;2023-03-03T04:49:47;109.27;;;37.77;;
3293;SDS011;1659;51.470;6.770;2023-03-03T04:52:13;107.73;;;39.77;;
3293;SDS011;1659;51.470;6.770;2023-03-03T04:54:40;110.33;;;37.77;;
3293;SDS011;1659;51.470;6.770;2023-03-03T04:57:07;100.10;;;36.30;;
3293;SDS011;1659;51.470;6.770;2023-03-03T04:59:34;112.63;;;35.90;;
3293;SDS011;1659;51.470;6.770;2023-03-03T05:02:02;101.00;;;36.80;;
3293;SDS011;1659;51.470;6.770;2023-03-03T05:04:29;110.10;;;35.87;;
3293;SDS011;1659;51.470;6.770;2023-03-03T05:06:56;93.73;;;37.00;;
3293;SDS011;1659;51.470;6.770;2023-03-03T05:09:22;106.07;;;36.37;;
3293;SDS011;1659;51.470;6.770;2023-03-03T05:11:49;99.53;;;36.50;;
3293;SDS011;1659;51.470;6.770;2023-03-03T05:14:16;99.47;;;35.10;;
3293;SDS011;1659;51.470;6.770;2023-03-03T05:16:42;96.30;;;36.87;;
3293;SDS011;1659;51.470;6.770;2023-03-03T05:19:10;98.67;;;35.43;;
3293;SDS011;1659;51.470;6.770;2023-03-03T05:21:37;101.87;;;35.97;;
3293;SDS011;1659;51.470;6.770;2023-03-03T05:24:06;91.40;;;32.50;;
3293;SDS011;1659;51.470;6.770;2023-03-03T05:26:33;87.63;;;30.50;;
3293;SDS011;1659;51.470;6.770;2023-03-03T05:28:59;93.00;;;34.07;;
3293;SDS011;1659;51.470;6.770;2023-03-03T05:31:26;79.33;;;32.43;;
3293;SDS011;1659;51.470;6.770;2023-03-03T05:33:52;89.07;;;33.77;;
3293;SDS011;1659;51.470;6.770;2023-03-03T05:36:20;94.00;;;33.80;;
3293;SDS011;1659;51.470;6.770;2023-03-03T05:38:47;106.87;;;34.83;;
3293;SDS011;1659;51.470;6.770;2023-03-03T05:41:13;98.30;;;34.90;;
3293;SDS011;1659;51.470;6.770;2023-03-03T05:43:40;101.87;;;34.17;;
3293;SDS011;1659;51.470;6.770;2023-03-03T05:46:07;99.10;;;33.73;;
3293;SDS011;1659;51.470;6.770;2023-03-03T05:48:33;85.97;;;32.10;;
3293;SDS011;1659;51.470;6.770;2023-03-03T05:51:00;109.43;;;38.03;;
3293;SDS011;1659;51.470;6.770;2023-03-03T05:53:28;95.80;;;37.27;;
3293;SDS011;1659;51.470;6.770;2023-03-03T05:55:54;98.40;;;37.60;;
3293;SDS011;1659;51.470;6.770;2023-03-03T05:58:21;105.87;;;39.07;;
3293;SDS011;1659;51.470;6.770;2023-03-03T06:00:48;98.43;;;38.00;;
3293;SDS011;1659;51.470;6.770;2023-03-03T06:03:14;112.80;;;37.03;;
3293;SDS011;1659;51.470;6.770;2023-03-03T06:05:42;109.60;;;40.33;;
3293;SDS011;1659;51.470;6.770;2023-03-03T06:08:08;112.43;;;37.27;;
3293;SDS011;1659;51.470;6.770;2023-03-03T06:10:36;101.70;;;37.20;;
3293;SDS011;1659;51.470;6.770;2023-03-03T06:13:03;105.63;;;37.03;;
3293;SDS011;1659;51.470;6.770;2023-03-03T06:15:29;117.67;;;42.10;;
3293;SDS011;1659;51.470;6.770;2023-03-03T06:17:56;115.00;;;41.80;;
3293;SDS011;1659;51.470;6.770;2023-03-03T06:20:22;107.30;;;37.33;;
3293;SDS011;1659;51.470;6.770;2023-03-03T06:22:49;115.40;;;40.13;;
3293;SDS011;1659;51.470;6.770;2023-03-03T06:25:15;104.73;;;38.60;;
3293;SDS011;1659;51.470;6.770;2023-03-03T06:27:43;111.47;;;41.23;;
3293;SDS011;1659;51.470;6.770;2023-03-03T06:30:10;108.67;;;37.53;;
3293;SDS011;1659;51.470;6.770;2023-03-03T06:32:37;105.83;;;39.20;;
3293;SDS011;1659;51.470;6.770;2023-03-03T06:35:05;110.13;;;37.90;;
3293;SDS011;1659;51.470;6.770;2023-03-03T06:37:31;100.70;;;36.67;;
3293;SDS011;1659;51.470;6.770;2023-03-03T06:39:58;95.93;;;35.13;;
3293;SDS011;1659;51.470;6.770;2023-03-03T06:42:25;101.17;;;36.77;;
3293;SDS011;1659;51.470;6.770;2023-03-03T06:44:53;123.33;;;38.20;;
3293;SDS011;1659;51.470;6.770;2023-03-03T06:47:19;85.53;;;33.60;;
3293;SDS011;1659;51.470;6.770;2023-03-03T06:49:46;99.30;;;36.97;;
3293;SDS011;1659;51.470;6.770;2023-03-03T06:52:13;96.70;;;36.37;;
3293;SDS011;1659;51.470;6.770;2023-03-03T06:54:43;93.03;;;35.70;;
3293;SDS011;1659;51.470;6.770;2023-03-03T06:57:14;107.63;;;35.80;;
3293;SDS011;1659;51.470;6.770;2023-03-03T06:59:42;97.30;;;34.90;;
3293;SDS011;1659;51.470;6.770;2023-03-03T07:02:15;93.57;;;32.33;;
3293;SDS011;1659;51.470;6.770;2023-03-03T07:04:43;92.80;;;34.00;;
3293;SDS011;1659;51.470;6.770;2023-03-03T07:07:14;98.03;;;35.90;;
3293;SDS011;1659;51.470;6.770;2023-03-03T07:09:43;93.20;;;35.60;;
3293;SDS011;1659;51.470;6.770;2023-03-03T07:12:12;93.60;;;36.03;;
3293;SDS011;1659;51.470;6.770;2023-03-03T07:14:42;92.40;;;34.97;;
3293;SDS011;1659;51.470;6.770;2023-03-03T07:17:12;103.23;;;35.10;;
3293;SDS011;1659;51.470;6.770;2023-03-03T07:19:42;91.50;;;34.90;;
3293;SDS011;1659;51.470;6.770;2023-03-03T07:22:12;91.83;;;33.23;;
3293;SDS011;1659;51.470;6.770;2023-03-03T07:24:41;90.03;;;33.63;;
3293;SDS011;1659;51.470;6.770;2023-03-03T07:27:10;101.33;;;35.40;;
3293;SDS011;1659;51.470;6.770;2023-03-03T07:29:39;93.07;;;32.63;;
3293;SDS011;1659;51.470;6.770;2023-03-03T07:32:12;82.63;;;34.47;;
3293;SDS011;1659;51.470;6.770;2023-03-03T07:34:50;99.97;;;33.90;;
3293;SDS011;1659;51.470;6.770;2023-03-03T07:37:21;108.00;;;36.80;;
3293;SDS011;1659;51.470;6.770;2023-03-03T07:39:55;116.67;;;39.30;;
3293;SDS011;1659;51.470;6.770;2023-03-03T07:42:23;119.37;;;40.20;;
3293;SDS011;1659;51.470;6.770;2023-03-03T07:44:53;105.97;;;38.10;;
3293;SDS011;1659;51.470;6.770;2023-03-03T07:47:23;110.67;;;37.17;;
3293;SDS011;1659;51.470;6.770;2023-03-03T07:49:51;106.73;;;38.83;;
3293;SDS011;1659;51.470;6.770;2023-03-03T07:52:22;113.83;;;40.97;;
3293;SDS011;1659;51.470;6.770;2023-03-03T07:54:51;107.07;;;37.70;;
3293;SDS011;1659;51.470;6.770;2023-03-03T07:57:20;106.37;;;38.67;;
3293;SDS011;1659;51.470;6.770;2023-03-03T07:59:50;102.63;;;37.50;;
3293;SDS011;1659;51.470;6.770;2023-03-03T08:02:32;110.57;;;38.40;;
3293;SDS011;1659;51.470;6.770;2023-03-03T08:05:15;121.83;;;39.40;;
3293;SDS011;1659;51.470;6.770;2023-03-03T08:07:53;107.20;;;38.60;;
3293;SDS011;1659;51.470;6.770;2023-03-03T08:13:15;125.60;;;38.77;;
3293;SDS011;1659;51.470;6.770;2023-03-03T08:15:44;119.53;;;42.20;;
3293;SDS011;1659;51.470;6.770;2023-03-03T08:18:17;130.87;;;45.27;;
3293;SDS011;1659;51.470;6.770;2023-03-03T08:20:48;134.07;;;43.77;;
3293;SDS011;1659;51.470;6.770;2023-03-03T08:23:16;120.70;;;42.77;;
3293;SDS011;1659;51.470;6.770;2023-03-03T08:25:44;125.30;;;42.53;;
3293;SDS011;1659;51.470;6.770;2023-03-03T08:28:12;117.63;;;40.80;;
3293;SDS011;1659;51.470;6.770;2023-03-03T08:30:39;120.20;;;39.07;;
3293;SDS011;1659;51.470;6.770;2023-03-03T08:33:06;102.03;;;34.33;;
3293;SDS011;1659;51.470;6.770;2023-03-03T08:35:34;99.60;;;33.53;;
3293;SDS011;1659;51.470;6.770;2023-03-03T08:38:01;104.20;;;35.63;;
3293;SDS011;1659;51.470;6.770;2023-03-03T08:40:28;106.40;;;35.10;;
3293;SDS011;1659;51.470;6.770;2023-03-03T08:42:54;104.90;;;33.13;;
3293;SDS011;1659;51.470;6.770;2023-03-03T08:45:22;99.23;;;34.10;;
3293;SDS011;1659;51.470;6.770;2023-03-03T08:47:48;106.50;;;34.07;;
3293;SDS011;1659;51.470;6.770;2023-03-03T08:50:16;105.23;;;34.83;;
3293;SDS011;1659;51.470;6.770;2023-03-03T08:52:44;103.50;;;34.60;;
3293;SDS011;1659;51.470;6.770;2023-03-03T08:55:11;109.73;;;36.07;;
3293;SDS011;1659;51.470;6.770;2023-03-03T08:57:38;100.43;;;35.00;;
3293;SDS011;1659;51.470;6.770;2023-03-03T09:00:05;97.90;;;34.67;;
3293;SDS011;1659;51.470;6.770;2023-03-03T09:02:33;124.77;;;38.33;;
3293;SDS011;1659;51.470;6.770;2023-03-03T09:04:59;91.93;;;33.13;;
3293;SDS011;1659;51.470;6.770;2023-03-03T09:07:26;90.53;;;32.47;;
3293;SDS011;1659;51.470;6.770;2023-03-03T09:09:54;104.00;;;36.40;;
3293;SDS011;1659;51.470;6.770;2023-03-03T09:12:21;99.03;;;34.70;;
3293;SDS011;1659;51.470;6.770;2023-03-03T09:14:55;109.93;;;39.17;;
3293;SDS011;1659;51.470;6.770;2023-03-03T09:17:24;87.83;;;31.60;;
3293;SDS011;1659;51.470;6.770;2023-03-03T09:19:52;79.47;;;30.10;;
3293;SDS011;1659;51.470;6.770;2023-03-03T09:22:23;82.23;;;28.77;;
3293;SDS011;1659;51.470;6.770;2023-03-03T09:24:52;68.50;;;26.00;;
3293;SDS011;1659;51.470;6.770;2023-03-03T09:27:24;80.00;;;25.90;;
3293;SDS011;1659;51.470;6.770;2023-03-03T09:29:53;75.07;;;28.27;;
3293;SDS011;1659;51.470;6.770;2023-03-03T09:32:23;72.60;;;24.60;;
3293;SDS011;1659;51.470;6.770;2023-03-03T09:34:56;66.70;;;24.80;;
3293;SDS011;1659;51.470;6.770;2023-03-03T09:37:25;90.73;;;27.57;;
3293;SDS011;1659;51.470;6.770;2023-03-03T09:39:57;83.03;;;29.87;;
3293;SDS011;1659;51.470;6.770;2023-03-03T09:45:24;94.80;;;30.63;;
3293;SDS011;1659;51.470;6.770;2023-03-03T09:48:14;81.60;;;27.37;;
3293;SDS011;1659;51.470;6.770;2023-03-03T09:50:53;75.63;;;27.33;;
3293;SDS011;1659;51.470;6.770;2023-03-03T09:53:34;75.63;;;28.50;;
3293;SDS011;1659;51.470;6.770;2023-03-03T09:56:23;80.20;;;30.03;;
3293;SDS011;1659;51.470;6.770;2023-03-03T09:58:56;77.93;;;28.33;;
3293;SDS011;1659;51.470;6.770;2023-03-03T10:01:41;82.23;;;30.03;;
3293;SDS011;1659;51.470;6.770;2023-03-03T10:04:29;100.70;;;31.10;;
3293;SDS011;1659;51.470;6.770;2023-03-03T10:07:25;71.53;;;29.23;;
3293;SDS011;1659;51.470;6.770;2023-03-03T10:10:14;75.77;;;29.43;;
3293;SDS011;1659;51.470;6.770;2023-03-03T10:12:50;93.53;;;32.37;;
3293;SDS011;1659;51.470;6.770;2023-03-03T10:15:29;83.50;;;30.20;;
3293;SDS011;1659;51.470;6.770;2023-03-03T10:18:07;79.47;;;29.97;;
3293;SDS011;1659;51.470;6.770;2023-03-03T10:20:44;108.40;;;30.90;;
3293;SDS011;1659;51.470;6.770;2023-03-03T10:23:20;79.90;;;29.10;;
3293;SDS011;1659;51.470;6.770;2023-03-03T10:25:56;88.83;;;30.83;;
3293;SDS011;1659;51.470;6.770;2023-03-03T10:28:42;87.47;;;29.90;;
3293;SDS011;1659;51.470;6.770;2023-03-03T10:31:27;89.60;;;28.33;;
3293;SDS011;1659;51.470;6.770;2023-03-03T10:34:09;92.13;;;28.30;;
3293;SDS011;1659;51.470;6.770;2023-03-03T10:36:49;79.37;;;30.37;;
3293;SDS011;1659;51.470;6.770;2023-03-03T10:39:26;76.20;;;27.10;;
3293;SDS011;1659;51.470;6.770;2023-03-03T10:42:15;69.53;;;27.00;;
3293;SDS011;1659;51.470;6.770;2023-03-03T10:45:11;62.50;;;27.40;;
3293;SDS011;1659;51.470;6.770;2023-03-03T10:48:17;77.23;;;29.43;;
3293;SDS011;1659;51.470;6.770;2023-03-03T10:51:00;66.67;;;25.60;;
3293;SDS011;1659;51.470;6.770;2023-03-03T10:53:38;74.90;;;26.93;;
3293;SDS011;1659;51.470;6.770;2023-03-03T10:56:14;72.00;;;25.83;;
3293;SDS011;1659;51.470;6.770;2023-03-03T10:59:07;84.10;;;28.80;;
3293;SDS011;1659;51.470;6.770;2023-03-03T11:01:48;66.40;;;26.83;;
3293;SDS011;1659;51.470;6.770;2023-03-03T11:04:35;78.20;;;27.17;;
3293;SDS011;1659;51.470;6.770;2023-03-03T11:07:15;71.03;;;25.27;;
3293;SDS011;1659;51.470;6.770;2023-03-03T11:09:56;75.70;;;28.50;;
3293;SDS011;1659;51.470;6.770;2023-03-03T11:12:36;74.03;;;27.33;;
3293;SDS011;1659;51.470;6.770;2023-03-03T11:18:11;64.50;;;26.77;;
3293;SDS011;1659;51.470;6.770;2023-03-03T11:20:50;66.70;;;25.00;;
3293;SDS011;1659;51.470;6.770;2023-03-03T11:26:31;62.53;;;25.40;;
3293;SDS011;1659;51.470;6.770;2023-03-03T11:29:12;74.67;;;27.70;;
3293;SDS011;1659;51.470;6.770;2023-03-03T11:31:55;69.90;;;28.47;;
3293;SDS011;1659;51.470;6.770;2023-03-03T11:34:39;79.17;;;26.37;;
3293;SDS011;1659;51.470;6.770;2023-03-03T11:37:17;73.40;;;27.03;;
3293;SDS011;1659;51.470;6.770;2023-03-03T11:39:49;62.23;;;24.13;;
3293;SDS011;1659;51.470;6.770;2023-03-03T11:42:22;61.60;;;23.40;;
3293;SDS011;1659;51.470;6.770;2023-03-03T11:44:53;63.87;;;24.57;;
3293;SDS011;1659;51.470;6.770;2023-03-03T11:47:25;57.67;;;24.67;;
3293;SDS011;1659;51.470;6.770;2023-03-03T11:49:58;58.83;;;24.60;;
3293;SDS011;1659;51.470;6.770;2023-03-03T11:52:28;78.07;;;28.50;;
3293;SDS011;1659;51.470;6.770;2023-03-03T11:55:04;62.33;;;27.13;;
3293;SDS011;1659;51.470;6.770;2023-03-03T11:57:38;68.30;;;26.53;;
3293;SDS011;1659;51.470;6.770;2023-03-03T12:00:15;58.87;;;25.17;;
3293;SDS011;1659;51.470;6.770;2023-03-03T12:02:55;59.47;;;26.90;;
3293;SDS011;1659;51.470;6.770;2023-03-03T12:05:40;55.80;;;26.33;;
3293;SDS011;1659;51.470;6.770;2023-03-03T12:08:18;64.00;;;26.90;;
3293;SDS011;1659;51.470;6.770;2023-03-03T12:11:00;60.23;;;24.60;;
3293;SDS011;1659;51.470;6.770;2023-03-03T12:13:35;58.13;;;25.13;;
3293;SDS011;1659;51.470;6.770;2023-03-03T12:16:11;61.00;;;26.40;;
3293;SDS011;1659;51.470;6.770;2023-03-03T12:18:48;63.10;;;27.00;;
3293;SDS011;1659;51.470;6.770;2023-03-03T12:21:33;63.43;;;28.53;;
3293;SDS011;1659;51.470;6.770;2023-03-03T12:24:11;72.00;;;28.20;;
3293;SDS011;1659;51.470;6.770;2023-03-03T12:26:49;78.07;;;30.77;;
3293;SDS011;1659;51.470;6.770;2023-03-03T12:29:24;69.20;;;28.37;;
3293;SDS011;1659;51.470;6.770;2023-03-03T12:31:57;81.53;;;32.33;;
3293;SDS011;1659;51.470;6.770;2023-03-03T12:34:33;76.07;;;32.30;;
3293;SDS011;1659;51.470;6.770;2023-03-03T12:40:12;82.87;;;35.17;;
3293;SDS011;1659;51.470;6.770;2023-03-03T12:42:59;90.43;;;37.70;;
3293;SDS011;1659;51.470;6.770;2023-03-03T12:45:36;80.73;;;35.17;;
3293;SDS011;1659;51.470;6.770;2023-03-03T12:48:13;79.13;;;33.37;;
3293;SDS011;1659;51.470;6.770;2023-03-03T12:50:46;78.90;;;34.80;;
3293;SDS011;1659;51.470;6.770;2023-03-03T12:53:33;84.17;;;34.73;;
3293;SDS011;1659;51.470;6.770;2023-03-03T12:56:09;83.03;;;36.67;;
3293;SDS011;1659;51.470;6.770;2023-03-03T12:58:41;85.70;;;35.93;;
3293;SDS011;1659;51.470;6.770;2023-03-03T13:01:22;71.60;;;33.90;;
3293;SDS011;1659;51.470;6.770;2023-03-03T13:04:02;69.17;;;33.67;;
3293;SDS011;1659;51.470;6.770;2023-03-03T13:06:34;72.20;;;33.93;;
3293;SDS011;1659;51.470;6.770;2023-03-03T13:09:14;73.27;;;32.70;;
3293;SDS011;1659;51.470;6.770;2023-03-03T13:11:54;67.87;;;31.37;;
3293;SDS011;1659;51.470;6.770;2023-03-03T13:14:34;67.53;;;32.27;;
3293;SDS011;1659;51.470;6.770;2023-03-03T13:17:17;71.23;;;32.27;;
3293;SDS011;1659;51.470;6.770;2023-03-03T13:19:49;66.60;;;32.97;;
3293;SDS011;1659;51.470;6.770;2023-03-03T13:22:23;66.80;;;33.77;;
3293;SDS011;1659;51.470;6.770;2023-03-03T13:25:02;66.47;;;32.30;;
3293;SDS011;1659;51.470;6.770;2023-03-03T13:27:35;64.07;;;32.77;;
3293;SDS011;1659;51.470;6.770;2023-03-03T13:30:11;59.40;;;31.20;;
3293;SDS011;1659;51.470;6.770;2023-03-03T13:32:42;56.60;;;31.03;;
3293;SDS011;1659;51.470;6.770;2023-03-03T13:35:16;68.93;;;32.50;;
3293;SDS011;1659;51.470;6.770;2023-03-03T13:37:51;52.43;;;27.60;;
3293;SDS011;1659;51.470;6.770;2023-03-03T13:40:23;52.10;;;26.97;;
3293;SDS011;1659;51.470;6.770;2023-03-03T13:42:54;51.40;;;25.47;;
3293;SDS011;1659;51.470;6.770;2023-03-03T13:45:28;38.70;;;22.67;;
3293;SDS011;1659;51.470;6.770;2023-03-03T13:48:01;38.40;;;21.13;;
3293;SDS011;1659;51.470;6.770;2023-03-03T13:50:37;48.20;;;24.03;;
3293;SDS011;1659;51.470;6.770;2023-03-03T13:53:13;47.00;;;24.47;;
3293;SDS011;1659;51.470;6.770;2023-03-03T13:56:01;40.70;;;23.90;;
3293;SDS011;1659;51.470;6.770;2023-03-03T13:58:36;43.50;;;25.07;;
3293;SDS011;1659;51.470;6.770;2023-03-03T14:01:11;40.10;;;22.70;;
3293;SDS011;1659;51.470;6.770;2023-03-03T14:03:49;39.13;;;21.70;;
3293;SDS011;1659;51.470;6.770;2023-03-03T14:06:23;40.23;;;21.60;;
3293;SDS011;1659;51.470;6.770;2023-03-03T14:08:59;37.33;;;22.40;;
3293;SDS011;1659;51.470;6.770;2023-03-03T14:11:47;41.40;;;24.00;;
3293;SDS011;1659;51.470;6.770;2023-03-03T14:14:25;42.27;;;22.90;;
3293;SDS011;1659;51.470;6.770;2023-03-03T14:17:01;42.90;;;24.30;;
3293;SDS011;1659;51.470;6.770;2023-03-03T14:19:30;40.30;;;23.20;;
3293;SDS011;1659;51.470;6.770;2023-03-03T14:22:05;37.80;;;21.93;;
3293;SDS011;1659;51.470;6.770;2023-03-03T14:24:54;56.57;;;28.80;;
3293;SDS011;1659;51.470;6.770;2023-03-03T14:27:28;33.90;;;20.80;;
3293;SDS011;1659;51.470;6.770;2023-03-03T14:33:00;36.43;;;18.30;;
3293;SDS011;1659;51.470;6.770;2023-03-03T14:35:31;34.03;;;19.67;;
3293;SDS011;1659;51.470;6.770;2023-03-03T14:38:00;30.77;;;17.60;;
3293;SDS011;1659;51.470;6.770;2023-03-03T14:40:29;38.73;;;19.40;;
3293;SDS011;1659;51.470;6.770;2023-03-03T14:42:59;36.17;;;19.67;;
3293;SDS011;1659;51.470;6.770;2023-03-03T14:45:32;33.27;;;19.07;;
3293;SDS011;1659;51.470;6.770;2023-03-03T14:48:05;28.43;;;17.00;;
3293;SDS011;1659;51.470;6.770;2023-03-03T14:50:37;30.43;;;15.93;;
3293;SDS011;1659;51.470;6.770;2023-03-03T14:53:13;33.10;;;18.50;;
3293;SDS011;1659;51.470;6.770;2023-03-03T14:55:45;26.80;;;14.80;;
3293;SDS011;1659;51.470;6.770;2023-03-03T14:58:25;28.37;;;16.30;;
3293;SDS011;1659;51.470;6.770;2023-03-03T15:01:13;33.10;;;17.47;;
3293;SDS011;1659;51.470;6.770;2023-03-03T15:03:46;25.73;;;14.27;;
3293;SDS011;1659;51.470;6.770;2023-03-03T15:11:59;24.67;;;13.67;;
3293;SDS011;1659;51.470;6.770;2023-03-03T15:14:31;27.67;;;14.93;;
3293;SDS011;1659;51.470;6.770;2023-03-03T15:17:18;26.23;;;13.77;;
3293;SDS011;1659;51.470;6.770;2023-03-03T15:20:03;28.60;;;14.80;;
3293;SDS011;1659;51.470;6.770;2023-03-03T15:22:47;34.97;;;16.50;;
3293;SDS011;1659;51.470;6.770;2023-03-03T15:25:21;31.37;;;15.57;;
3293;SDS011;1659;51.470;6.770;2023-03-03T15:28:05;31.47;;;16.00;;
3293;SDS011;1659;51.470;6.770;2023-03-03T15:30:46;29.23;;;14.70;;
3293;SDS011;1659;51.470;6.770;2023-03-03T15:33:20;35.60;;;15.80;;
3293;SDS011;1659;51.470;6.770;2023-03-03T15:35:56;26.93;;;14.57;;